Time;durP1;ratioP1;P1;durP2;ratioP2;P2;SDS_P1;SDS_P2;PMS_P1;PMS_P2;Temp;Humidity;BMP_temperature;BMP_pressure;BME280_temperature;BME280_humidity;BME280_pressure;Samples;Min_cycle;Max_cycle;Signal;HPM_P1;HPM_P2
2021/11/18 00:02:16;;;;;;;25.00;8.00;;;;;;;6.97;100.00;101425.81;5203490;28;20017;-80
2021/11/18 00:04:46;;;;;;;25.95;8.35;;;;;;;6.91;100.00;101438.88;5206855;28;20041;-81
2021/11/18 00:07:16;;;;;;;20.58;8.00;;;;;;;6.98;100.00;101437.94;5200708;28;20533;-81
2021/11/18 00:09:46;;;;;;;23.45;8.27;;;;;;;6.85;100.00;101446.69;5199826;28;20052;-81
2021/11/18 00:12:17;;;;;;;21.35;8.15;;;;;;;6.84;100.00;101444.94;5199197;28;20029;-81
2021/11/18 00:14:47;;;;;;;22.98;7.55;;;;;;;6.87;100.00;101444.94;5191754;28;20407;-82
2021/11/18 00:17:18;;;;;;;19.77;7.07;;;;;;;6.84;100.00;101445.84;5197313;28;20057;-82
2021/11/18 00:19:48;;;;;;;26.25;8.18;;;;;;;6.98;100.00;101443.13;5190883;28;20030;-82
2021/11/18 00:22:18;;;;;;;26.52;7.68;;;;;;;6.91;100.00;101442.31;5196060;28;20034;-80
2021/11/18 00:24:48;;;;;;;21.25;6.80;;;;;;;6.87;100.00;101456.19;5188885;28;20053;-81
2021/11/18 00:27:19;;;;;;;24.40;7.07;;;;;;;6.89;100.00;101454.44;5193659;28;20064;-81
2021/11/18 00:29:50;;;;;;;22.23;7.68;;;;;;;6.92;100.00;101463.97;5197091;28;20026;-81
2021/11/18 00:32:20;;;;;;;22.45;6.90;;;;;;;6.86;100.00;101464.00;5195035;28;20079;-82
2021/11/18 00:34:50;;;;;;;19.73;7.63;;;;;;;6.87;100.00;101455.31;5192224;28;20029;-82
2021/11/18 00:37:21;;;;;;;16.77;7.15;;;;;;;6.85;100.00;101454.47;5184629;28;20241;-82
2021/11/18 00:39:51;;;;;;;20.85;7.00;;;;;;;6.83;100.00;101454.50;5181680;28;20096;-82
2021/11/18 00:42:21;;;;;;;22.05;7.38;;;;;;;6.90;100.00;101469.16;5196596;28;20029;-82
2021/11/18 00:44:54;;;;;;;22.30;7.13;;;;;;;6.90;100.00;101468.31;5193889;28;21481;-82
2021/11/18 00:47:24;;;;;;;20.55;6.97;;;;;;;6.88;100.00;101477.81;5193580;28;20403;-82
2021/11/18 00:49:55;;;;;;;28.08;7.25;;;;;;;6.95;100.00;101476.94;5187861;28;20030;-82
2021/11/18 00:52:25;;;;;;;20.90;6.82;;;;;;;6.94;100.00;101472.63;5195352;28;20052;-81
2021/11/18 00:54:56;;;;;;;17.48;6.75;;;;;;;7.02;100.00;101476.00;5187693;28;20132;-82
2021/11/18 00:57:26;;;;;;;21.80;6.50;;;;;;;6.92;100.00;101471.75;5191333;28;20419;-81
2021/11/18 00:59:56;;;;;;;19.05;6.40;;;;;;;7.05;100.00;101487.25;5187476;28;20123;-82
2021/11/18 01:02:27;;;;;;;19.98;6.57;;;;;;;7.00;100.00;101493.34;5194691;28;20037;-82
2021/11/18 01:04:57;;;;;;;20.83;6.28;;;;;;;6.98;100.00;101489.91;5196717;28;20112;-82
2021/11/18 01:07:27;;;;;;;25.10;6.30;;;;;;;7.00;100.00;101498.53;5192991;28;20671;-82
2021/11/18 01:09:58;;;;;;;22.55;6.68;;;;;;;6.98;100.00;101502.91;5185452;28;20029;-82
2021/11/18 01:12:28;;;;;;;24.10;6.38;;;;;;;6.93;100.00;101502.06;5194123;28;20234;-82
2021/11/18 01:14:58;;;;;;;17.70;6.47;;;;;;;6.89;100.00;101503.81;5177245;28;20551;-80
2021/11/18 01:17:29;;;;;;;20.58;6.25;;;;;;;6.87;100.00;101508.16;5199173;28;20091;-81
2021/11/18 01:19:59;;;;;;;21.20;5.95;;;;;;;7.00;100.00;101498.53;5188595;28;20018;-82
2021/11/18 01:22:31;;;;;;;22.15;7.28;;;;;;;6.94;100.00;101499.44;5187447;28;20056;-82
2021/11/18 01:25:03;;;;;;;23.73;6.68;;;;;;;6.97;100.00;101494.22;5177942;28;20022;-82
2021/11/18 01:27:33;;;;;;;18.15;6.18;;;;;;;6.90;100.00;101512.50;5189870;28;20045;-81
2021/11/18 01:30:11;;;;;;;19.90;6.78;;;;;;;6.94;100.00;101519.38;5195414;28;20072;-81
2021/11/18 01:32:41;;;;;;;15.20;6.20;;;;;;;6.90;100.00;101517.69;5195908;28;20253;-82
2021/11/18 01:35:12;;;;;;;24.27;7.55;;;;;;;6.85;100.00;101514.22;5194726;28;20056;-82
2021/11/18 01:37:42;;;;;;;24.45;7.22;;;;;;;6.85;100.00;101509.03;5168848;28;20484;-82
2021/11/18 01:40:18;;;;;;;18.42;6.40;;;;;;;6.91;100.00;101506.41;5186591;28;20167;-81
2021/11/18 01:42:49;;;;;;;24.88;6.93;;;;;;;6.81;100.00;101499.53;5190353;28;20025;-82
2021/11/18 01:45:23;;;;;;;20.83;6.25;;;;;;;6.86;100.00;101505.56;5190779;28;20164;-82
2021/11/18 01:47:54;;;;;;;17.35;6.20;;;;;;;6.87;100.00;101517.69;5190828;28;20169;-81
2021/11/18 01:50:30;;;;;;;24.10;7.30;;;;;;;6.80;100.00;101516.00;5201819;28;20033;-82
2021/11/18 01:53:05;;;;;;;22.45;6.45;;;;;;;6.81;100.00;101512.53;5194746;28;20021;-82
2021/11/18 01:55:36;;;;;;;26.60;6.47;;;;;;;6.78;100.00;101513.38;5197754;28;20033;-80
2021/11/18 01:58:07;;;;;;;25.60;7.05;;;;;;;6.82;100.00;101509.94;5195282;28;20029;-82
2021/11/18 02:00:47;;;;;;;20.05;7.13;;;;;;;6.89;100.00;101511.59;5195901;28;20033;-81
2021/11/18 02:03:18;;;;;;;21.95;7.00;;;;;;;6.89;100.00;101515.94;5201701;28;20028;-82
2021/11/18 02:05:56;;;;;;;21.00;6.93;;;;;;;6.84;100.00;101507.31;5206057;28;20033;-83
2021/11/18 02:08:27;;;;;;;19.48;6.03;;;;;;;6.78;100.00;101504.75;5194237;28;20117;-81
2021/11/18 02:11:06;;;;;;;22.00;6.80;;;;;;;6.72;100.00;101505.63;5202107;28;20036;-81
2021/11/18 02:13:36;;;;;;;22.25;6.70;;;;;;;6.77;100.00;101505.63;5192447;28;20093;-80
2021/11/18 02:16:12;;;;;;;21.88;6.68;;;;;;;6.74;100.00;101505.66;5198955;28;20056;-81
2021/11/18 02:18:42;;;;;;;17.70;5.93;;;;;;;6.74;100.00;101503.06;5205285;28;20029;-81
2021/11/18 02:21:14;;;;;;;19.40;6.30;;;;;;;6.70;100.00;101499.59;5209162;28;20022;-81
2021/11/18 02:23:49;;;;;;;17.40;5.93;;;;;;;6.69;100.00;101502.19;5197911;28;20064;-82
2021/11/18 02:26:22;;;;;;;15.45;5.72;;;;;;;6.68;100.00;101511.72;5195828;28;20044;-81
2021/11/18 02:28:56;;;;;;;19.35;6.45;;;;;;;6.67;100.00;101522.13;5207400;28;20033;-82
2021/11/18 02:31:30;;;;;;;15.55;5.70;;;;;;;6.64;100.00;101517.81;5200095;28;20535;-82
2021/11/18 02:34:06;;;;;;;15.52;5.88;;;;;;;6.77;100.00;101511.66;5197524;28;20052;-82
2021/11/18 02:36:36;;;;;;;18.52;6.00;;;;;;;6.76;100.00;101520.34;5200800;28;20487;-82
2021/11/18 02:39:08;;;;;;;19.45;5.82;;;;;;;6.83;100.00;101515.97;5200529;28;20144;-82
2021/11/18 02:41:39;;;;;;;18.10;5.85;;;;;;;6.79;100.00;101527.25;5198153;28;20036;-81
2021/11/18 02:44:10;;;;;;;19.33;5.80;;;;;;;6.85;100.00;101516.81;5205172;28;20060;-81
2021/11/18 02:46:40;;;;;;;19.15;5.55;;;;;;;6.80;100.00;101522.03;5202227;28;20025;-81
2021/11/18 02:49:10;;;;;;;20.23;6.40;;;;;;;6.96;100.00;101522.84;5196648;28;20029;-82
2021/11/18 02:51:41;;;;;;;19.77;6.00;;;;;;;6.95;100.00;101518.50;5201020;28;20051;-82
2021/11/18 02:54:11;;;;;;;16.27;5.40;;;;;;;6.91;100.00;101519.41;5199451;28;20159;-82
2021/11/18 02:56:42;;;;;;;16.70;6.10;;;;;;;6.91;100.00;101524.59;5197470;28;20028;-81
2021/11/18 02:59:13;;;;;;;14.05;5.50;;;;;;;6.89;100.00;101526.31;5204802;28;20063;-81
2021/11/18 03:01:46;;;;;;;17.77;5.43;;;;;;;6.91;100.00;101530.66;5199289;28;20024;-81
2021/11/18 03:04:16;;;;;;;20.08;5.97;;;;;;;6.98;100.00;101531.47;5202665;28;20430;-80
2021/11/18 03:06:47;;;;;;;15.52;5.32;;;;;;;6.95;100.00;101542.75;5203047;28;20037;-81
2021/11/18 03:09:17;;;;;;;24.20;6.10;;;;;;;6.94;100.00;101543.63;5195296;28;20025;-82
2021/11/18 03:11:47;;;;;;;18.08;5.43;;;;;;;6.95;100.00;101541.91;5198860;28;20029;-82
2021/11/18 03:14:18;;;;;;;22.95;5.47;;;;;;;6.98;100.00;101537.56;5198285;28;20025;-80
2021/11/18 03:16:49;;;;;;;19.05;4.68;;;;;;;6.97;100.00;101534.94;5202603;28;20027;-80
2021/11/18 03:19:19;;;;;;;18.17;5.80;;;;;;;6.94;100.00;101534.97;5202572;28;20049;-80
2021/11/18 03:21:50;;;;;;;26.33;5.47;;;;;;;6.95;100.00;101529.75;5198330;28;20026;-80
2021/11/18 03:24:21;;;;;;;16.63;5.63;;;;;;;6.93;100.00;101533.25;5196375;28;20025;-82
2021/11/18 03:26:51;;;;;;;29.02;6.18;;;;;;;7.06;100.00;101542.69;5198214;28;20093;-81
2021/11/18 03:29:23;;;;;;;16.73;5.53;;;;;;;7.04;100.00;101531.44;5203674;28;20037;-82
2021/11/18 03:31:53;;;;;;;17.38;5.38;;;;;;;7.00;100.00;101541.00;5201476;28;20017;-79
2021/11/18 03:34:29;;;;;;;13.02;5.05;;;;;;;7.08;100.00;101534.00;5212987;28;20021;-79
2021/11/18 03:37:00;;;;;;;19.83;6.05;;;;;;;7.04;100.00;101527.13;5198730;28;20037;-80
2021/11/18 03:39:31;;;;;;;20.45;6.07;;;;;;;7.06;100.00;101521.88;5200404;28;20044;-82
2021/11/18 03:42:04;;;;;;;20.70;5.47;;;;;;;7.05;100.00;101521.03;5206014;28;20026;-81
2021/11/18 03:44:36;;;;;;;20.05;5.93;;;;;;;7.10;100.00;101528.81;5196633;28;20038;-82
2021/11/18 03:47:10;;;;;;;22.20;6.22;;;;;;;7.04;100.00;101527.13;5200099;28;20116;-82
2021/11/18 03:49:40;;;;;;;20.70;5.72;;;;;;;7.09;100.00;101524.50;5197687;28;20036;-81
2021/11/18 03:52:13;;;;;;;16.88;5.43;;;;;;;7.12;100.00;101516.66;5195575;28;20398;-82
2021/11/18 03:54:45;;;;;;;20.58;5.32;;;;;;;7.13;100.00;101521.00;5193235;28;20680;-82
2021/11/18 03:57:16;;;;;;;19.65;5.40;;;;;;;7.13;100.00;101526.19;5193145;28;20685;-82
2021/11/18 03:59:48;;;;;;;20.08;5.70;;;;;;;7.13;100.00;101526.19;5202690;28;20081;-79
2021/11/18 04:02:20;;;;;;;16.85;5.50;;;;;;;7.08;100.00;101522.78;5206905;28;20565;-81
2021/11/18 04:04:56;;;;;;;19.38;5.72;;;;;;;7.06;100.00;101520.16;5200242;28;20472;-81
2021/11/18 04:07:27;;;;;;;16.30;5.38;;;;;;;7.18;100.00;101524.41;5198862;28;20041;-82
2021/11/18 04:09:58;;;;;;;16.02;5.63;;;;;;;7.15;100.00;101517.53;5202733;28;20025;-81
2021/11/18 04:12:28;;;;;;;16.00;5.50;;;;;;;7.10;100.00;101521.88;5199517;28;20472;-81
2021/11/18 04:14:58;;;;;;;15.45;5.47;;;;;;;7.05;100.00;101518.44;5204031;28;20025;-81
2021/11/18 04:17:28;;;;;;;18.92;5.50;;;;;;;7.01;100.00;101534.06;5208510;28;20124;-80
2021/11/18 04:19:59;;;;;;;22.23;5.88;;;;;;;7.07;100.00;101537.47;5203693;28;20017;-81
2021/11/18 04:22:29;;;;;;;16.70;5.32;;;;;;;7.13;100.00;101526.19;5198199;28;20060;-82
2021/11/18 04:25:01;;;;;;;20.58;5.75;;;;;;;7.10;100.00;101527.06;5203234;28;20026;-81
2021/11/18 04:27:32;;;;;;;15.38;5.50;;;;;;;7.18;100.00;101535.69;5201078;28;20406;-82
2021/11/18 04:30:04;;;;;;;17.77;5.78;;;;;;;7.16;100.00;101536.56;5198755;28;20025;-81
2021/11/18 04:32:35;;;;;;;20.52;6.40;;;;;;;7.22;100.00;101565.09;5201711;28;20029;-81
2021/11/18 04:35:06;;;;;;;18.02;5.45;;;;;;;7.25;100.00;101552.13;5205338;28;20036;-81
2021/11/18 04:37:37;;;;;;;15.57;5.60;;;;;;;7.32;100.00;101549.47;5196695;28;20031;-81
2021/11/18 04:40:09;;;;;;;17.05;6.43;;;;;;;7.41;100.00;101560.66;5199486;28;20068;-82
2021/11/18 04:42:41;;;;;;;19.45;6.35;;;;;;;7.45;100.00;101569.28;5199920;28;20120;-81
2021/11/18 04:45:16;;;;;;;17.45;6.35;;;;;;;7.43;100.00;101563.25;5205554;28;20021;-82
2021/11/18 04:47:47;;;;;;;21.55;6.00;;;;;;;7.55;100.00;101569.19;5198752;28;20144;-82
2021/11/18 04:50:19;;;;;;;15.02;5.38;;;;;;;7.53;100.00;101567.50;5203093;28;20040;-80
2021/11/18 04:52:50;;;;;;;15.43;5.25;;;;;;;7.50;100.00;101565.78;5195961;28;20109;-80
2021/11/18 04:55:24;;;;;;;14.20;5.53;;;;;;;7.64;100.00;101563.06;5198576;28;20045;-81
2021/11/18 04:57:55;;;;;;;20.38;5.82;;;;;;;7.59;100.00;101563.13;5200286;28;20031;-82
2021/11/18 05:00:29;;;;;;;19.25;5.82;;;;;;;7.60;100.00;101561.38;5198267;28;20061;-81
2021/11/18 05:03:00;;;;;;;19.88;5.88;;;;;;;7.60;100.00;101557.06;5196700;28;20040;-81
2021/11/18 05:05:31;;;;;;;21.48;6.85;;;;;;;7.71;100.00;101544.78;5197224;28;20025;-82
2021/11/18 05:08:02;;;;;;;20.77;5.85;;;;;;;7.70;100.00;101550.88;5197627;28;20022;-81
2021/11/18 05:10:33;;;;;;;19.10;5.70;;;;;;;7.67;100.00;101558.72;5200451;28;20029;-82
2021/11/18 05:13:03;;;;;;;17.30;6.07;;;;;;;7.74;100.00;101560.38;5194869;28;20098;-81
2021/11/18 05:15:36;;;;;;;21.80;6.35;;;;;;;7.72;100.00;101562.13;5187156;28;20082;-82
2021/11/18 05:18:08;;;;;;;22.73;5.82;;;;;;;7.68;100.00;101565.63;5197530;28;20029;-82
2021/11/18 05:20:39;;;;;;;20.17;6.50;;;;;;;7.69;100.00;101562.16;5183787;28;20372;-81
2021/11/18 05:23:11;;;;;;;27.25;6.45;;;;;;;7.66;100.00;101567.41;5199224;28;20468;-82
2021/11/18 05:25:43;;;;;;;20.88;6.28;;;;;;;7.67;100.00;101574.31;5197407;28;20037;-82
2021/11/18 05:28:14;;;;;;;21.17;7.07;;;;;;;7.69;100.00;101575.16;5190894;28;20101;-81
2021/11/18 05:30:45;;;;;;;24.63;6.70;;;;;;;7.69;100.00;101572.56;5188409;28;20092;-83
2021/11/18 05:33:17;;;;;;;18.52;6.00;;;;;;;7.76;100.00;101570.78;5196030;28;20487;-82
2021/11/18 05:35:48;;;;;;;18.88;6.45;;;;;;;7.70;100.00;101571.69;5188824;28;20037;-81
2021/11/18 05:38:20;;;;;;;22.95;6.75;;;;;;;7.67;100.00;101568.28;5193448;28;20399;-81
2021/11/18 05:40:52;;;;;;;23.50;7.13;;;;;;;7.70;100.00;101569.09;5193485;28;20033;-82
2021/11/18 05:43:23;;;;;;;20.98;6.80;;;;;;;7.81;100.00;101572.47;5194534;28;20036;-81
2021/11/18 05:45:55;;;;;;;19.77;6.75;;;;;;;7.74;100.00;101575.97;5195585;28;20402;-82
2021/11/18 05:48:25;;;;;;;23.40;6.75;;;;;;;7.75;100.00;101577.75;5196214;28;20040;-81
2021/11/18 05:50:57;;;;;;;24.67;6.88;;;;;;;7.77;100.00;101578.59;5194822;28;20025;-82
2021/11/18 05:53:33;;;;;;;16.95;6.75;;;;;;;7.85;100.00;101573.31;5190470;28;20438;-81
2021/11/18 05:56:08;;;;;;;21.88;6.55;;;;;;;7.91;100.00;101573.25;5181881;28;20034;-82
2021/11/18 05:58:40;;;;;;;23.42;7.35;;;;;;;7.89;100.00;101588.03;5187695;28;20030;-81
2021/11/18 06:01:12;;;;;;;17.75;6.43;;;;;;;7.89;100.00;101588.88;5193978;28;20079;-81
2021/11/18 06:03:43;;;;;;;24.45;7.22;;;;;;;7.88;100.00;101591.50;5192545;28;20528;-82
2021/11/18 06:06:13;;;;;;;23.73;7.00;;;;;;;7.91;100.00;101588.88;5201402;28;20067;-82
2021/11/18 06:08:44;;;;;;;22.35;6.82;;;;;;;8.03;100.00;101591.38;5192090;28;20168;-81
2021/11/18 06:11:15;;;;;;;26.25;7.28;;;;;;;8.09;100.00;101599.13;5196469;28;20026;-81
2021/11/18 06:13:50;;;;;;;19.52;6.90;;;;;;;8.06;100.00;101594.78;5192686;28;20034;-82
2021/11/18 06:16:24;;;;;;;25.02;7.32;;;;;;;8.04;100.00;101600.91;5194917;28;20036;-82
2021/11/18 06:19:12;;;;;;;19.83;7.47;;;;;;;8.09;100.00;101589.59;5204984;23;20051;-81
2021/11/18 06:24:30;;;;;;;23.60;7.70;;;;;;;8.09;100.00;101602.59;5217676;28;20559;-82
2021/11/18 06:27:01;;;;;;;20.92;7.05;;;;;;;8.18;100.00;101594.72;5211278;28;20636;-82
2021/11/18 06:29:39;;;;;;;21.27;7.00;;;;;;;8.12;100.00;101592.16;5214995;28;20098;-81
2021/11/18 06:32:19;;;;;;;21.92;7.65;;;;;;;8.15;100.00;101594.72;5216138;28;20383;-82
2021/11/18 06:34:51;;;;;;;20.60;7.55;;;;;;;8.14;100.00;101593.00;5206539;28;20787;-82
2021/11/18 06:37:21;;;;;;;30.05;8.70;;;;;;;8.22;100.00;101600.78;5210918;28;20495;-82
2021/11/18 06:39:51;;;;;;;26.40;8.85;;;;;;;8.17;100.00;101605.09;5212111;28;20032;-81
2021/11/18 06:42:22;;;;;;;20.75;7.72;;;;;;;8.13;100.00;101606.91;5206931;28;20041;-82
2021/11/18 06:44:52;;;;;;;28.10;8.82;;;;;;;8.18;100.00;101605.13;5218825;28;20021;-81
2021/11/18 06:47:22;;;;;;;26.55;8.90;;;;;;;8.26;100.00;101615.47;5214218;28;20036;-82
2021/11/18 06:49:54;;;;;;;24.15;8.77;;;;;;;8.22;100.00;101622.44;5217413;28;20116;-81
2021/11/18 06:52:24;;;;;;;23.52;8.68;;;;;;;8.23;100.00;101611.16;5220343;28;20033;-82
2021/11/18 06:54:54;;;;;;;23.35;9.10;;;;;;;8.19;100.00;101617.28;5219327;28;20031;-81
2021/11/18 06:57:25;;;;;;;21.40;8.85;;;;;;;8.27;100.00;101612.88;5218857;28;20048;-81
2021/11/18 06:59:57;;;;;;;21.95;8.57;;;;;;;8.15;100.00;101618.16;5209446;28;20120;-82
2021/11/18 07:02:27;;;;;;;19.02;8.68;;;;;;;8.15;100.00;101609.47;5214737;28;20640;-81
2021/11/18 07:04:58;;;;;;;24.88;8.43;;;;;;;8.16;100.00;101612.06;5206193;28;20057;-81
2021/11/18 07:07:28;;;;;;;24.70;9.05;;;;;;;8.18;100.00;101614.72;5218725;28;20087;-81
2021/11/18 07:10:01;;;;;;;22.85;8.70;;;;;;;8.12;100.00;101619.91;5212257;28;20494;-82
2021/11/18 07:12:32;;;;;;;25.58;8.85;;;;;;;8.12;100.00;101623.41;5210701;28;20522;-81
2021/11/18 07:15:05;;;;;;;22.00;9.65;;;;;;;8.13;100.00;101632.06;5210782;28;20033;-81
2021/11/18 07:17:35;;;;;;;21.65;9.18;;;;;;;8.04;100.00;101633.00;5210345;28;20029;-81
2021/11/18 07:20:06;;;;;;;25.23;10.20;;;;;;;8.02;100.00;101633.91;5210133;28;20025;-82
2021/11/18 07:22:39;;;;;;;24.88;8.95;;;;;;;8.02;100.00;101639.97;5212052;28;20479;-81
2021/11/18 07:25:15;;;;;;;25.23;9.73;;;;;;;8.07;100.00;101653.78;5216020;28;20029;-81
2021/11/18 07:27:46;;;;;;;23.73;9.52;;;;;;;8.12;100.00;101651.16;5215754;28;20029;-82
2021/11/18 07:30:18;;;;;;;23.27;9.15;;;;;;;8.18;100.00;101666.78;5216311;28;20075;-82
2021/11/18 07:32:49;;;;;;;20.83;8.93;;;;;;;8.24;100.00;101672.78;5217233;28;20387;-82
2021/11/18 07:35:22;;;;;;;17.65;8.88;;;;;;;8.31;100.00;101664.06;5214938;28;20063;-82
2021/11/18 07:37:52;;;;;;;22.27;8.82;;;;;;;8.37;100.00;101661.38;5214601;28;20025;-82
2021/11/18 07:40:24;;;;;;;19.60;9.05;;;;;;;8.38;100.00;101655.28;5218042;28;20025;-82
2021/11/18 07:42:55;;;;;;;23.33;8.68;;;;;;;8.43;100.00;101657.84;5213965;28;20020;-82
2021/11/18 07:45:27;;;;;;;23.70;8.63;;;;;;;8.43;100.00;101670.88;5215970;28;20037;-81
2021/11/18 07:47:57;;;;;;;20.25;8.60;;;;;;;8.50;100.00;101669.94;5209121;28;20029;-82
2021/11/18 07:50:28;;;;;;;17.15;8.02;;;;;;;8.44;100.00;101670.00;5212763;28;20021;-82
2021/11/18 07:52:59;;;;;;;22.05;8.80;;;;;;;8.52;100.00;101668.19;5214037;28;20025;-82
2021/11/18 07:55:29;;;;;;;20.05;8.52;;;;;;;8.51;100.00;101682.06;5216080;28;20067;-82
2021/11/18 07:58:00;;;;;;;25.23;8.73;;;;;;;8.49;100.00;101682.13;5213639;28;20680;-81
2021/11/18 08:00:30;;;;;;;23.25;8.48;;;;;;;8.52;100.00;101678.63;5214723;28;20271;-82
2021/11/18 08:03:09;;;;;;;19.27;9.40;;;;;;;8.68;100.00;101688.88;5211342;28;20107;-82
2021/11/18 08:05:40;;;;;;;22.58;8.35;;;;;;;8.70;100.00;101683.66;5208114;28;20111;-81
2021/11/18 08:08:11;;;;;;;20.80;8.27;;;;;;;8.66;100.00;101688.03;5214104;28;20060;-82
2021/11/18 08:10:42;;;;;;;22.50;8.10;;;;;;;8.68;100.00;101699.28;5214596;28;20186;-82
2021/11/18 08:13:13;;;;;;;22.00;8.35;;;;;;;8.68;100.00;101686.25;5219765;28;20055;-81
2021/11/18 08:15:44;;;;;;;24.27;8.70;;;;;;;8.68;100.00;101686.25;5215431;28;20029;-81
2021/11/18 08:18:14;;;;;;;20.95;8.43;;;;;;;8.65;100.00;101669.78;5206435;28;20021;-81
2021/11/18 08:20:45;;;;;;;25.23;7.95;;;;;;;8.82;100.00;101673.94;5215499;28;20411;-81
2021/11/18 08:23:15;;;;;;;17.92;7.93;;;;;;;8.88;100.00;101678.25;5218534;28;20036;-81
2021/11/18 08:25:45;;;;;;;22.55;8.18;;;;;;;8.82;100.00;101673.06;5212310;28;20033;-81
2021/11/18 08:28:15;;;;;;;22.48;7.85;;;;;;;8.86;100.00;101683.47;5214869;28;20631;-81
2021/11/18 08:30:46;;;;;;;23.35;7.32;;;;;;;8.97;100.00;101686.81;5214830;28;20092;-81
2021/11/18 08:33:16;;;;;;;18.38;7.60;;;;;;;9.02;100.00;101678.91;5212640;28;20025;-81
2021/11/18 08:35:47;;;;;;;19.55;7.68;;;;;;;9.02;100.00;101666.75;5211844;28;20064;-81
2021/11/18 08:38:19;;;;;;;18.75;7.60;;;;;;;9.10;100.00;101670.13;5217853;28;20031;-82
2021/11/18 08:41:03;;;;;;;19.70;7.32;;;;;;;9.19;100.00;101677.84;5215988;28;20379;-81
2021/11/18 08:43:36;;;;;;;18.85;7.53;;;;;;;9.28;100.00;101683.81;5211439;28;20033;-81
2021/11/18 08:46:09;;;;;;;24.30;7.47;;;;;;;9.24;100.00;101673.44;5214392;28;20025;-81
2021/11/18 08:48:39;;;;;;;17.20;7.30;;;;;;;9.28;100.00;101677.75;5207986;28;20049;-81
2021/11/18 08:51:11;;;;;;;17.63;6.88;;;;;;;9.28;100.00;101677.75;5216698;28;20071;-82
2021/11/18 08:53:43;;;;;;;18.98;7.03;;;;;;;9.21;100.00;101683.91;5210684;28;20052;-81
2021/11/18 08:56:13;;;;;;;25.38;7.22;;;;;;;9.28;100.00;101681.22;5206404;28;20079;-81
2021/11/18 08:58:47;;;;;;;15.82;7.30;;;;;;;9.29;100.00;101693.38;5208266;28;20511;-81
2021/11/18 09:01:23;;;;;;;23.52;7.90;;;;;;;9.30;100.00;101691.63;5209539;28;20043;-81
2021/11/18 09:03:53;;;;;;;;;;;;;;;9.36;100.00;101686.34;5205324;28;20639;-82
2021/11/18 09:06:24;;;;;;;20.60;7.47;;;;;;;9.47;100.00;101681.84;5216126;28;20003;-81
2021/11/18 09:08:54;;;;;;;17.45;6.57;;;;;;;9.49;100.00;101685.28;5209172;28;20043;-82
2021/11/18 09:11:27;;;;;;;21.67;7.65;;;;;;;9.71;100.00;101681.50;5212908;28;20035;-81
2021/11/18 09:13:57;;;;;;;20.98;7.30;;;;;;;9.71;100.00;101682.38;5213921;28;20032;-82
2021/11/18 09:16:30;;;;;;;18.80;7.10;;;;;;;9.99;100.00;101668.00;5223666;28;20029;-80
2021/11/18 09:19:02;;;;;;;16.90;7.10;;;;;;;10.10;100.00;101676.56;5222311;28;20040;-80
2021/11/18 09:21:33;;;;;;;17.52;6.85;;;;;;;10.18;100.00;101686.91;5226194;28;20026;-81
2021/11/18 09:24:15;;;;;;;21.55;7.88;;;;;;;10.20;100.00;101688.56;5224660;28;20538;-81
2021/11/18 09:26:50;;;;;;;16.40;6.82;;;;;;;9.91;100.00;101698.59;5213489;28;20475;-81
2021/11/18 09:29:22;;;;;;;13.98;6.22;;;;;;;10.01;100.00;101691.50;5207834;28;20473;-81
2021/11/18 09:31:53;;;;;;;20.38;6.65;;;;;;;9.83;100.00;101694.38;5208795;28;20021;-81
2021/11/18 09:34:26;;;;;;;19.00;6.53;;;;;;;10.10;100.00;101691.34;5203165;28;20036;-81
2021/11/18 09:36:57;;;;;;;15.60;6.68;;;;;;;10.16;100.00;101691.28;5209012;28;20032;-80
2021/11/18 09:39:27;;;;;;;21.55;7.20;;;;;;;10.28;100.00;101696.28;5216408;28;20621;-81
2021/11/18 09:42:05;;;;;;;23.85;7.13;;;;;;;10.30;100.00;101695.38;5216199;28;20071;-81
2021/11/18 09:44:44;;;;;;;23.13;7.60;;;;;;;10.41;100.00;101695.19;5205766;28;20603;-81
2021/11/18 09:47:36;;;;;;;17.38;6.88;;;;;;;10.50;100.00;101703.75;5211337;28;20044;-82
2021/11/18 09:50:43;;;;;;;22.65;7.70;;;;;;;10.52;100.00;101696.75;5205532;28;20029;-82
2021/11/18 09:53:32;;;;;;;17.83;6.60;;;;;;;10.53;100.00;101692.38;5210354;28;20037;-81
2021/11/18 09:56:06;;;;;;;23.33;6.85;;;;;;;10.38;100.00;101697.88;5203838;28;20260;-81
2021/11/18 09:58:36;;;;;;;20.80;6.75;;;;;;;10.19;100.00;101693.84;5217734;28;20083;-81
2021/11/18 10:01:42;;;;;;;18.83;6.30;;;;;;;10.18;100.00;101685.13;5220975;28;20057;-81
2021/11/18 10:04:34;;;;;;;20.67;6.47;;;;;;;10.13;100.00;101686.97;5204522;28;21009;-81
2021/11/18 10:07:41;;;;;;;25.50;7.22;;;;;;;10.23;100.00;101692.91;5212742;28;20058;-81
2021/11/18 10:10:32;;;;;;;18.90;6.47;;;;;;;10.29;100.00;101698.00;5205772;28;20070;-81
2021/11/18 10:13:21;;;;;;;19.30;6.50;;;;;;;10.40;100.00;101696.97;5208360;28;20502;-81
2021/11/18 10:16:16;;;;;;;16.50;6.07;;;;;;;10.39;100.00;101689.16;5205471;28;20104;-81
2021/11/18 10:18:54;;;;;;;17.58;6.07;;;;;;;10.41;100.00;101687.34;5208414;28;20423;-81
2021/11/18 10:21:40;;;;;;;18.25;6.00;;;;;;;10.34;100.00;101696.22;5216605;28;20702;-81
2021/11/18 10:24:16;;;;;;;22.15;6.25;;;;;;;10.33;100.00;101679.66;5210069;28;20064;-81
2021/11/18 10:27:10;;;;;;;16.58;5.93;;;;;;;10.31;100.00;101680.59;5213908;28;20514;-81
2021/11/18 10:30:15;;;;;;;16.50;5.65;;;;;;;10.42;100.00;101678.63;5207731;28;20060;-81
2021/11/18 10:32:51;;;;;;;25.85;5.97;;;;;;;10.68;100.00;101682.50;5203546;28;20059;-81
2021/11/18 10:35:53;;;;;;;17.85;6.07;;;;;;;10.58;100.00;101674.84;5211647;28;20033;-81
2021/11/18 10:38:32;;;;;;;27.30;6.32;;;;;;;10.61;100.00;101677.41;5215398;28;20104;-81
2021/11/18 10:41:20;;;;;;;20.00;6.07;;;;;;;10.72;100.00;101680.72;5194276;28;20052;-82
2021/11/18 10:44:19;;;;;;;18.10;5.85;;;;;;;10.86;100.00;101676.94;5214329;28;20057;-81
2021/11/18 10:46:50;;;;;;;12.27;4.88;;;;;;;10.85;100.00;101679.59;5205977;28;20029;-81
2021/11/18 10:49:32;;;;;;;21.42;5.78;;;;;;;10.88;100.00;101669.91;5206009;28;20035;-81
2021/11/18 10:52:06;;;;;;;20.38;5.60;;;;;;;10.76;100.00;101658.84;5220659;28;20025;-82
2021/11/18 10:54:42;;;;;;;16.92;6.25;;;;;;;10.79;100.00;101666.63;5213060;28;20146;-81
2021/11/18 10:57:14;;;;;;;;;;;;;;;10.67;100.00;101659.03;5219349;28;20372;-81
2021/11/18 10:59:51;;;;;;;19.08;5.10;;;;;;;10.74;100.00;101676.31;5212921;28;19917;-81
2021/11/18 11:02:30;;;;;;;16.00;5.60;;;;;;;10.65;100.00;101655.56;5210476;28;20017;-81
2021/11/18 11:05:20;;;;;;;19.98;6.35;;;;;;;10.65;100.00;101650.34;5202400;28;20029;-82
2021/11/18 11:07:53;;;;;;;13.45;5.38;;;;;;;10.75;100.00;101662.34;5215621;28;20025;-82
2021/11/18 11:10:26;;;;;;;25.50;5.90;;;;;;;10.69;100.00;101662.47;5214711;22;20037;-80
2021/11/18 11:13:10;;;;;;;18.63;5.57;;;;;;;10.74;100.00;101663.22;5212055;28;20056;-81
2021/11/18 11:16:23;;;;;;;15.85;5.82;;;;;;;10.77;100.00;101673.63;5200261;28;20052;-81
2021/11/18 11:19:06;;;;;;;14.77;5.18;;;;;;;10.88;100.00;101666.44;5202152;28;20033;-81
2021/11/18 11:21:48;;;;;;;19.98;6.07;;;;;;;10.81;100.00;101650.00;5201283;28;20026;-80
2021/11/18 11:24:37;;;;;;;15.32;5.32;;;;;;;10.96;100.00;101638.38;5205624;28;20030;-80
2021/11/18 11:27:29;;;;;;;22.05;5.70;;;;;;;10.98;100.00;101639.22;5204095;28;20025;-81
2021/11/18 11:30:18;;;;;;;20.08;5.53;;;;;;;11.01;100.00;101641.78;5205192;28;20336;-80
2021/11/18 11:32:53;;;;;;;21.50;5.90;;;;;;;11.19;100.00;101622.19;5215759;28;20258;-81
2021/11/18 11:35:48;;;;;;;14.70;5.43;;;;;;;11.19;100.00;101618.69;5216446;28;20025;-81
2021/11/18 11:38:51;;;;;;;21.95;5.50;;;;;;;11.15;100.00;101620.53;5196278;28;20079;-82
2021/11/18 11:41:46;;;;;;;14.02;5.20;;;;;;;11.25;100.00;101613.34;5201282;28;20391;-80
2021/11/18 11:44:29;;;;;;;21.63;5.75;;;;;;;11.17;98.33;101618.75;5196929;28;20022;-82
2021/11/18 11:47:34;;;;;;;17.80;5.38;;;;;;;10.83;100.00;101629.91;5202250;28;20025;-81
2021/11/18 11:50:23;;;;;;;13.40;5.07;;;;;;;10.98;100.00;101626.13;5189023;28;20034;-81
2021/11/18 11:53:13;;;;;;;17.33;5.90;;;;;;;10.90;99.59;101636.78;5199167;28;20072;-81